sensor_id;sensor_type;location;lat;lon;timestamp;pressure;altitude;pressure_sealevel;temperature;humidity
46211;BME280;52144;48.040;-1.594;2023-05-03T00:02:15;101753.06;;;16.17;79.98
46211;BME280;52144;48.040;-1.594;2023-05-03T00:04:43;101750.75;;;16.10;79.28
46211;BME280;52144;48.040;-1.594;2023-05-03T00:07:13;101750.41;;;16.33;78.56
46211;BME280;52144;48.040;-1.594;2023-05-03T00:09:43;101750.72;;;15.94;80.11
46211;BME280;52144;48.040;-1.594;2023-05-03T00:12:11;101749.03;;;16.09;79.76
46211;BME280;52144;48.040;-1.594;2023-05-03T00:14:40;101741.13;;;16.05;79.30
46211;BME280;52144;48.040;-1.594;2023-05-03T00:17:08;101742.50;;;16.30;78.72
46211;BME280;52144;48.040;-1.594;2023-05-03T00:19:36;101736.22;;;16.14;79.33
46211;BME280;52144;48.040;-1.594;2023-05-03T00:22:05;101736.84;;;16.01;80.45
46211;BME280;52144;48.040;-1.594;2023-05-03T00:24:34;101731.47;;;16.01;80.61
46211;BME280;52144;48.040;-1.594;2023-05-03T00:27:02;101738.53;;;15.87;80.97
46211;BME280;52144;48.040;-1.594;2023-05-03T00:29:30;101728.81;;;15.84;82.10
46211;BME280;52144;48.040;-1.594;2023-05-03T00:31:59;101721.94;;;15.96;80.91
46211;BME280;52144;48.040;-1.594;2023-05-03T00:34:27;101723.75;;;15.95;81.04
46211;BME280;52144;48.040;-1.594;2023-05-03T00:36:55;101721.31;;;15.91;80.90
46211;BME280;52144;48.040;-1.594;2023-05-03T00:39:23;101723.91;;;15.75;82.19
46211;BME280;52144;48.040;-1.594;2023-05-03T00:41:55;101724.88;;;15.74;82.40
46211;BME280;52144;48.040;-1.594;2023-05-03T00:44:23;101723.28;;;15.87;82.13
46211;BME280;52144;48.040;-1.594;2023-05-03T00:46:51;101716.66;;;15.77;81.71
46211;BME280;52144;48.040;-1.594;2023-05-03T00:49:20;101712.59;;;15.68;82.51
46211;BME280;52144;48.040;-1.594;2023-05-03T00:51:49;101710.41;;;15.76;82.09
46211;BME280;52144;48.040;-1.594;2023-05-03T00:54:18;101707.06;;;15.89;81.77
46211;BME280;52144;48.040;-1.594;2023-05-03T00:56:47;101709.06;;;15.85;81.40
46211;BME280;52144;48.040;-1.594;2023-05-03T00:59:18;101711.31;;;15.58;82.89
46211;BME280;52144;48.040;-1.594;2023-05-03T01:01:47;101701.63;;;15.55;83.18
46211;BME280;52144;48.040;-1.594;2023-05-03T01:04:15;101702.06;;;15.46;83.55
46211;BME280;52144;48.040;-1.594;2023-05-03T01:06:51;101695.69;;;15.66;82.02
46211;BME280;52144;48.040;-1.594;2023-05-03T01:09:29;101698.13;;;15.71;81.17
46211;BME280;52144;48.040;-1.594;2023-05-03T01:12:03;101691.72;;;15.56;82.79
46211;BME280;52144;48.040;-1.594;2023-05-03T01:14:40;101688.34;;;15.70;82.17
46211;BME280;52144;48.040;-1.594;2023-05-03T01:17:13;101689.69;;;15.78;80.38
46211;BME280;52144;48.040;-1.594;2023-05-03T01:19:43;101695.75;;;15.64;82.48
46211;BME280;52144;48.040;-1.594;2023-05-03T01:22:22;101686.09;;;15.79;80.83
46211;BME280;52144;48.040;-1.594;2023-05-03T01:25:00;101678.78;;;15.64;81.18
46211;BME280;52144;48.040;-1.594;2023-05-03T01:27:31;101678.69;;;15.65;81.14
46211;BME280;52144;48.040;-1.594;2023-05-03T01:29:59;101678.28;;;15.38;82.09
46211;BME280;52144;48.040;-1.594;2023-05-03T01:32:33;101682.03;;;15.53;81.84
46211;BME280;52144;48.040;-1.594;2023-05-03T01:35:06;101683.50;;;15.59;80.99
46211;BME280;52144;48.040;-1.594;2023-05-03T01:37:36;101678.38;;;15.54;80.08
46211;BME280;52144;48.040;-1.594;2023-05-03T01:40:07;101670.47;;;15.69;79.74
46211;BME280;52144;48.040;-1.594;2023-05-03T01:42:36;101672.22;;;15.52;81.19
46211;BME280;52144;48.040;-1.594;2023-05-03T01:45:06;101673.00;;;15.54;80.23
46211;BME280;52144;48.040;-1.594;2023-05-03T01:47:34;101670.88;;;15.43;80.50
46211;BME280;52144;48.040;-1.594;2023-05-03T01:50:02;101671.50;;;15.31;81.48
46211;BME280;52144;48.040;-1.594;2023-05-03T01:52:31;101669.84;;;15.29;80.93
46211;BME280;52144;48.040;-1.594;2023-05-03T01:54:58;101668.44;;;15.39;80.76
46211;BME280;52144;48.040;-1.594;2023-05-03T01:57:27;101664.66;;;15.43;80.95
46211;BME280;52144;48.040;-1.594;2023-05-03T01:59:55;101667.16;;;15.29;80.51
46211;BME280;52144;48.040;-1.594;2023-05-03T02:02:23;101660.84;;;15.47;80.10
46211;BME280;52144;48.040;-1.594;2023-05-03T02:04:51;101660.44;;;15.37;80.94
46211;BME280;52144;48.040;-1.594;2023-05-03T02:07:19;101665.00;;;15.18;81.88
46211;BME280;52144;48.040;-1.594;2023-05-03T02:09:47;101659.72;;;15.34;80.76
46211;BME280;52144;48.040;-1.594;2023-05-03T02:12:14;101659.41;;;15.22;79.99
46211;BME280;52144;48.040;-1.594;2023-05-03T02:14:43;101659.78;;;15.32;80.47
46211;BME280;52144;48.040;-1.594;2023-05-03T02:17:11;101649.47;;;15.24;80.65
46211;BME280;52144;48.040;-1.594;2023-05-03T02:19:39;101652.66;;;14.96;82.93
46211;BME280;52144;48.040;-1.594;2023-05-03T02:22:07;101653.34;;;15.00;81.49
46211;BME280;52144;48.040;-1.594;2023-05-03T02:24:35;101655.47;;;14.93;82.00
46211;BME280;52144;48.040;-1.594;2023-05-03T02:27:03;101653.56;;;14.59;83.57
46211;BME280;52144;48.040;-1.594;2023-05-03T02:29:31;101658.28;;;14.73;83.10
46211;BME280;52144;48.040;-1.594;2023-05-03T02:32:00;101654.47;;;14.59;84.63
46211;BME280;52144;48.040;-1.594;2023-05-03T02:34:31;101657.53;;;14.69;82.99
46211;BME280;52144;48.040;-1.594;2023-05-03T02:36:59;101656.91;;;14.64;84.10
46211;BME280;52144;48.040;-1.594;2023-05-03T02:39:26;101650.00;;;14.77;83.18
46211;BME280;52144;48.040;-1.594;2023-05-03T02:41:54;101658.56;;;14.48;84.30
46211;BME280;52144;48.040;-1.594;2023-05-03T02:44:22;101651.19;;;14.72;83.62
46211;BME280;52144;48.040;-1.594;2023-05-03T02:46:50;101654.75;;;14.90;82.84
46211;BME280;52144;48.040;-1.594;2023-05-03T02:49:21;101654.56;;;14.75;83.00
46211;BME280;52144;48.040;-1.594;2023-05-03T02:51:49;101652.53;;;14.80;81.91
46211;BME280;52144;48.040;-1.594;2023-05-03T02:54:18;101658.22;;;14.74;82.67
46211;BME280;52144;48.040;-1.594;2023-05-03T02:56:46;101654.28;;;14.43;84.76
46211;BME280;52144;48.040;-1.594;2023-05-03T02:59:13;101655.78;;;14.30;85.10
46211;BME280;52144;48.040;-1.594;2023-05-03T03:01:41;101647.22;;;14.22;85.49
46211;BME280;52144;48.040;-1.594;2023-05-03T03:04:09;101646.31;;;14.23;85.80
46211;BME280;52144;48.040;-1.594;2023-05-03T03:06:38;101643.69;;;14.40;85.07
46211;BME280;52144;48.040;-1.594;2023-05-03T03:09:06;101641.00;;;14.21;86.22
46211;BME280;52144;48.040;-1.594;2023-05-03T03:11:34;101639.19;;;14.03;86.34
46211;BME280;52144;48.040;-1.594;2023-05-03T03:14:02;101638.97;;;14.27;84.48
46211;BME280;52144;48.040;-1.594;2023-05-03T03:16:29;101629.78;;;14.32;85.67
46211;BME280;52144;48.040;-1.594;2023-05-03T03:18:57;101633.56;;;14.66;83.02
46211;BME280;52144;48.040;-1.594;2023-05-03T03:21:25;101625.78;;;14.22;86.25
46211;BME280;52144;48.040;-1.594;2023-05-03T03:23:56;101631.03;;;14.25;84.42
46211;BME280;52144;48.040;-1.594;2023-05-03T03:26:24;101611.41;;;14.04;86.74
46211;BME280;52144;48.040;-1.594;2023-05-03T03:28:52;101619.50;;;14.23;84.84
46211;BME280;52144;48.040;-1.594;2023-05-03T03:31:19;101620.41;;;14.22;85.12
46211;BME280;52144;48.040;-1.594;2023-05-03T03:33:49;101620.94;;;14.30;84.52
46211;BME280;52144;48.040;-1.594;2023-05-03T03:36:16;101620.00;;;14.31;84.84
46211;BME280;52144;48.040;-1.594;2023-05-03T03:38:44;101616.38;;;14.32;84.52
46211;BME280;52144;48.040;-1.594;2023-05-03T03:41:13;101622.75;;;14.30;84.91
46211;BME280;52144;48.040;-1.594;2023-05-03T03:43:41;101618.53;;;14.24;85.43
46211;BME280;52144;48.040;-1.594;2023-05-03T03:46:09;101623.63;;;14.30;84.42
46211;BME280;52144;48.040;-1.594;2023-05-03T03:48:38;101619.72;;;14.37;84.21
46211;BME280;52144;48.040;-1.594;2023-05-03T03:51:06;101610.72;;;14.19;84.87
46211;BME280;52144;48.040;-1.594;2023-05-03T03:53:34;101613.75;;;14.50;82.82
46211;BME280;52144;48.040;-1.594;2023-05-03T03:56:02;101611.75;;;14.17;84.11
46211;BME280;52144;48.040;-1.594;2023-05-03T03:58:31;101613.25;;;14.41;83.32
46211;BME280;52144;48.040;-1.594;2023-05-03T04:00:59;101609.91;;;14.36;84.16
46211;BME280;52144;48.040;-1.594;2023-05-03T04:03:27;101615.34;;;14.16;84.67
46211;BME280;52144;48.040;-1.594;2023-05-03T04:05:55;101611.59;;;14.01;86.63
46211;BME280;52144;48.040;-1.594;2023-05-03T04:08:23;101604.50;;;14.38;82.44
46211;BME280;52144;48.040;-1.594;2023-05-03T04:10:50;101608.81;;;14.40;83.65
46211;BME280;52144;48.040;-1.594;2023-05-03T04:13:18;101607.16;;;14.00;84.52
46211;BME280;52144;48.040;-1.594;2023-05-03T04:15:48;101609.25;;;14.12;84.05
46211;BME280;52144;48.040;-1.594;2023-05-03T04:18:15;101607.09;;;14.01;84.96
46211;BME280;52144;48.040;-1.594;2023-05-03T04:20:43;101606.94;;;14.42;82.83
46211;BME280;52144;48.040;-1.594;2023-05-03T04:23:11;101605.94;;;14.07;84.08
46211;BME280;52144;48.040;-1.594;2023-05-03T04:25:39;101606.72;;;13.90;84.69
46211;BME280;52144;48.040;-1.594;2023-05-03T04:28:12;101605.31;;;14.21;84.33
46211;BME280;52144;48.040;-1.594;2023-05-03T04:30:40;101607.38;;;14.14;84.04
46211;BME280;52144;48.040;-1.594;2023-05-03T04:33:10;101604.34;;;14.22;82.64
46211;BME280;52144;48.040;-1.594;2023-05-03T04:35:38;101607.09;;;14.20;82.61
46211;BME280;52144;48.040;-1.594;2023-05-03T04:38:05;101600.13;;;13.97;83.67
46211;BME280;52144;48.040;-1.594;2023-05-03T04:40:34;101613.69;;;14.32;81.80
46211;BME280;52144;48.040;-1.594;2023-05-03T04:43:03;101616.06;;;14.38;82.16
46211;BME280;52144;48.040;-1.594;2023-05-03T04:45:30;101618.88;;;14.16;83.49
46211;BME280;52144;48.040;-1.594;2023-05-03T04:47:59;101623.56;;;14.13;82.80
46211;BME280;52144;48.040;-1.594;2023-05-03T04:50:28;101621.44;;;14.19;81.45
46211;BME280;52144;48.040;-1.594;2023-05-03T04:52:56;101621.56;;;14.16;81.11
46211;BME280;52144;48.040;-1.594;2023-05-03T04:55:24;101623.19;;;14.39;80.70
46211;BME280;52144;48.040;-1.594;2023-05-03T04:57:52;101624.13;;;14.19;81.11
46211;BME280;52144;48.040;-1.594;2023-05-03T05:00:20;101619.69;;;14.18;80.89
46211;BME280;52144;48.040;-1.594;2023-05-03T05:02:48;101629.34;;;14.41;80.83
46211;BME280;52144;48.040;-1.594;2023-05-03T05:05:16;101620.41;;;14.22;80.69
46211;BME280;52144;48.040;-1.594;2023-05-03T05:07:47;101634.84;;;14.38;79.73
46211;BME280;52144;48.040;-1.594;2023-05-03T05:10:15;101629.72;;;14.15;80.55
46211;BME280;52144;48.040;-1.594;2023-05-03T05:12:43;101632.16;;;14.19;81.35
46211;BME280;52144;48.040;-1.594;2023-05-03T05:15:10;101619.91;;;14.14;81.23
46211;BME280;52144;48.040;-1.594;2023-05-03T05:17:38;101619.00;;;14.15;81.29
46211;BME280;52144;48.040;-1.594;2023-05-03T05:20:07;101625.50;;;14.28;80.74
46211;BME280;52144;48.040;-1.594;2023-05-03T05:22:39;101626.22;;;14.32;79.91
46211;BME280;52144;48.040;-1.594;2023-05-03T05:25:08;101619.13;;;14.50;78.78
46211;BME280;52144;48.040;-1.594;2023-05-03T05:27:36;101622.91;;;14.45;78.52
46211;BME280;52144;48.040;-1.594;2023-05-03T05:30:05;101631.13;;;14.61;78.92
46211;BME280;52144;48.040;-1.594;2023-05-03T05:32:33;101623.06;;;14.61;78.17
46211;BME280;52144;48.040;-1.594;2023-05-03T05:35:01;101625.78;;;14.22;79.70
46211;BME280;52144;48.040;-1.594;2023-05-03T05:37:29;101624.91;;;14.21;80.13
46211;BME280;52144;48.040;-1.594;2023-05-03T05:39:57;101622.03;;;14.45;80.17
46211;BME280;52144;48.040;-1.594;2023-05-03T05:42:26;101636.25;;;14.66;79.16
46211;BME280;52144;48.040;-1.594;2023-05-03T05:44:54;101620.28;;;14.44;79.21
46211;BME280;52144;48.040;-1.594;2023-05-03T05:47:22;101625.59;;;14.64;78.11
46211;BME280;52144;48.040;-1.594;2023-05-03T05:49:50;101625.94;;;14.57;78.21
46211;BME280;52144;48.040;-1.594;2023-05-03T05:52:18;101620.72;;;14.54;77.99
46211;BME280;52144;48.040;-1.594;2023-05-03T05:54:46;101632.47;;;14.70;76.35
46211;BME280;52144;48.040;-1.594;2023-05-03T05:57:13;101632.47;;;14.70;77.09
46211;BME280;52144;48.040;-1.594;2023-05-03T05:59:43;101633.50;;;15.21;75.86
46211;BME280;52144;48.040;-1.594;2023-05-03T06:02:13;101627.00;;;15.08;75.41
46211;BME280;52144;48.040;-1.594;2023-05-03T06:04:43;101627.31;;;15.02;74.82
46211;BME280;52144;48.040;-1.594;2023-05-03T06:07:13;101620.31;;;15.17;75.44
46211;BME280;52144;48.040;-1.594;2023-05-03T06:09:41;101612.34;;;15.15;74.36
46211;BME280;52144;48.040;-1.594;2023-05-03T06:12:08;101616.75;;;15.34;75.24
46211;BME280;52144;48.040;-1.594;2023-05-03T06:14:36;101622.19;;;15.67;73.22
46211;BME280;52144;48.040;-1.594;2023-05-03T06:17:15;101606.47;;;15.77;72.28
46211;BME280;52144;48.040;-1.594;2023-05-03T06:19:43;101614.53;;;15.77;71.67
46211;BME280;52144;48.040;-1.594;2023-05-03T06:22:13;101619.75;;;15.62;72.04
46211;BME280;52144;48.040;-1.594;2023-05-03T06:24:41;101614.41;;;15.45;72.28
46211;BME280;52144;48.040;-1.594;2023-05-03T06:27:08;101609.25;;;15.40;72.47
46211;BME280;52144;48.040;-1.594;2023-05-03T06:29:36;101615.19;;;15.47;73.44
46211;BME280;52144;48.040;-1.594;2023-05-03T06:32:04;101608.22;;;15.60;71.62
46211;BME280;52144;48.040;-1.594;2023-05-03T06:34:34;101609.50;;;15.36;71.19
46211;BME280;52144;48.040;-1.594;2023-05-03T06:37:01;101599.84;;;15.84;71.73
46211;BME280;52144;48.040;-1.594;2023-05-03T06:39:29;101607.47;;;15.41;71.88
46211;BME280;52144;48.040;-1.594;2023-05-03T06:41:57;101599.50;;;15.90;70.41
46211;BME280;52144;48.040;-1.594;2023-05-03T06:44:25;101604.66;;;16.11;71.25
46211;BME280;52144;48.040;-1.594;2023-05-03T06:46:53;101596.75;;;16.23;69.51
46211;BME280;52144;48.040;-1.594;2023-05-03T06:49:21;101589.31;;;16.13;68.56
46211;BME280;52144;48.040;-1.594;2023-05-03T06:51:50;101595.34;;;16.00;69.73
46211;BME280;52144;48.040;-1.594;2023-05-03T06:54:18;101586.41;;;15.67;69.21
46211;BME280;52144;48.040;-1.594;2023-05-03T06:56:45;101588.34;;;16.30;69.31
46211;BME280;52144;48.040;-1.594;2023-05-03T06:59:13;101588.00;;;16.04;68.17
46211;BME280;52144;48.040;-1.594;2023-05-03T07:01:41;101585.53;;;15.99;67.92
46211;BME280;52144;48.040;-1.594;2023-05-03T07:04:09;101581.88;;;15.84;67.41
46211;BME280;52144;48.040;-1.594;2023-05-03T07:06:37;101577.78;;;16.27;67.66
46211;BME280;52144;48.040;-1.594;2023-05-03T07:09:21;101577.00;;;16.09;66.53
46211;BME280;52144;48.040;-1.594;2023-05-03T07:12:08;101571.25;;;15.99;67.75
46211;BME280;52144;48.040;-1.594;2023-05-03T07:14:37;101570.22;;;16.49;68.07
46211;BME280;52144;48.040;-1.594;2023-05-03T07:17:05;101571.59;;;16.72;66.99
46211;BME280;52144;48.040;-1.594;2023-05-03T07:19:32;101577.34;;;16.82;65.35
46211;BME280;52144;48.040;-1.594;2023-05-03T07:22:00;101571.97;;;16.82;65.02
46211;BME280;52144;48.040;-1.594;2023-05-03T07:24:30;101579.06;;;16.67;66.10
46211;BME280;52144;48.040;-1.594;2023-05-03T07:26:58;101559.97;;;16.88;65.63
46211;BME280;52144;48.040;-1.594;2023-05-03T07:29:25;101572.03;;;16.64;65.34
46211;BME280;52144;48.040;-1.594;2023-05-03T07:31:53;101570.56;;;16.59;64.34
46211;BME280;52144;48.040;-1.594;2023-05-03T07:34:21;101558.41;;;16.52;64.78
46211;BME280;52144;48.040;-1.594;2023-05-03T07:36:49;101556.31;;;16.89;64.20
46211;BME280;52144;48.040;-1.594;2023-05-03T07:39:17;101551.88;;;17.18;64.20
46211;BME280;52144;48.040;-1.594;2023-05-03T07:41:46;101546.16;;;16.78;63.32
46211;BME280;52144;48.040;-1.594;2023-05-03T07:44:14;101537.38;;;17.35;63.70
46211;BME280;52144;48.040;-1.594;2023-05-03T07:46:42;101540.84;;;16.76;63.08
46211;BME280;52144;48.040;-1.594;2023-05-03T07:49:09;101531.34;;;17.01;63.53
46211;BME280;52144;48.040;-1.594;2023-05-03T07:51:38;101523.63;;;16.95;63.37
46211;BME280;52144;48.040;-1.594;2023-05-03T07:54:06;101522.78;;;16.94;61.98
46211;BME280;52144;48.040;-1.594;2023-05-03T07:56:34;101523.69;;;17.23;62.80
46211;BME280;52144;48.040;-1.594;2023-05-03T07:59:03;101519.09;;;16.95;62.99
46211;BME280;52144;48.040;-1.594;2023-05-03T08:01:35;101516.69;;;17.35;62.46
46211;BME280;52144;48.040;-1.594;2023-05-03T08:04:03;101513.34;;;17.75;62.93
46211;BME280;52144;48.040;-1.594;2023-05-03T08:06:32;101517.00;;;17.59;61.69
46211;BME280;52144;48.040;-1.594;2023-05-03T08:09:01;101506.59;;;17.82;62.44
46211;BME280;52144;48.040;-1.594;2023-05-03T08:11:30;101519.47;;;17.62;61.15
46211;BME280;52144;48.040;-1.594;2023-05-03T08:13:58;101505.84;;;17.51;63.05
46211;BME280;52144;48.040;-1.594;2023-05-03T08:16:27;101508.91;;;18.02;60.23
46211;BME280;52144;48.040;-1.594;2023-05-03T08:18:55;101505.72;;;18.10;60.45
46211;BME280;52144;48.040;-1.594;2023-05-03T08:21:22;101504.38;;;17.74;61.14
46211;BME280;52144;48.040;-1.594;2023-05-03T08:23:51;101512.09;;;17.95;62.58
46211;BME280;52144;48.040;-1.594;2023-05-03T08:26:20;101498.66;;;18.22;60.23
46211;BME280;52144;48.040;-1.594;2023-05-03T08:28:49;101498.59;;;18.36;59.86
46211;BME280;52144;48.040;-1.594;2023-05-03T08:31:17;101497.25;;;18.29;60.34
46211;BME280;52144;48.040;-1.594;2023-05-03T08:33:46;101497.94;;;18.33;58.90
46211;BME280;52144;48.040;-1.594;2023-05-03T08:36:14;101495.22;;;18.60;59.47
46211;BME280;52144;48.040;-1.594;2023-05-03T08:38:42;101486.50;;;18.69;59.08
46211;BME280;52144;48.040;-1.594;2023-05-03T08:41:16;101484.00;;;18.66;58.79
46211;BME280;52144;48.040;-1.594;2023-05-03T08:43:49;101495.03;;;18.36;59.61
46211;BME280;52144;48.040;-1.594;2023-05-03T08:46:18;101492.84;;;18.55;59.57
46211;BME280;52144;48.040;-1.594;2023-05-03T08:48:48;101485.06;;;18.91;59.60
46211;BME280;52144;48.040;-1.594;2023-05-03T08:51:16;101482.31;;;18.78;58.19
46211;BME280;52144;48.040;-1.594;2023-05-03T08:53:45;101479.72;;;18.76;58.22
46211;BME280;52144;48.040;-1.594;2023-05-03T08:56:19;101478.41;;;19.35;58.17
46211;BME280;52144;48.040;-1.594;2023-05-03T08:58:50;101476.78;;;19.71;57.70
46211;BME280;52144;48.040;-1.594;2023-05-03T09:01:18;101465.09;;;19.44;56.54
46211;BME280;52144;48.040;-1.594;2023-05-03T09:03:49;101466.50;;;19.24;57.88
46211;BME280;52144;48.040;-1.594;2023-05-03T09:06:19;101461.84;;;19.01;57.54
46211;BME280;52144;48.040;-1.594;2023-05-03T09:08:47;101457.53;;;19.24;56.81
46211;BME280;52144;48.040;-1.594;2023-05-03T09:11:22;101467.38;;;19.38;58.29
46211;BME280;52144;48.040;-1.594;2023-05-03T09:13:51;101459.03;;;19.02;56.51
46211;BME280;52144;48.040;-1.594;2023-05-03T09:16:23;101452.53;;;18.79;56.66
46211;BME280;52144;48.040;-1.594;2023-05-03T09:18:58;101444.84;;;18.73;56.06
46211;BME280;52144;48.040;-1.594;2023-05-03T09:21:26;101445.53;;;18.90;56.89
46211;BME280;52144;48.040;-1.594;2023-05-03T09:23:55;101440.91;;;19.17;56.56
46211;BME280;52144;48.040;-1.594;2023-05-03T09:26:30;101451.66;;;19.56;54.84
46211;BME280;52144;48.040;-1.594;2023-05-03T09:29:03;101446.25;;;19.69;54.46
46211;BME280;52144;48.040;-1.594;2023-05-03T09:31:32;101443.34;;;19.59;54.77
46211;BME280;52144;48.040;-1.594;2023-05-03T09:34:19;101446.63;;;20.01;53.86
46211;BME280;52144;48.040;-1.594;2023-05-03T09:36:47;101440.91;;;19.93;52.67
46211;BME280;52144;48.040;-1.594;2023-05-03T09:39:16;101448.44;;;19.76;53.41
46211;BME280;52144;48.040;-1.594;2023-05-03T09:41:44;101442.81;;;20.03;53.93
46211;BME280;52144;48.040;-1.594;2023-05-03T09:44:12;101437.81;;;20.34;53.26
46211;BME280;52144;48.040;-1.594;2023-05-03T09:47:01;101438.97;;;19.82;52.80
46211;BME280;52144;48.040;-1.594;2023-05-03T09:49:30;101433.69;;;20.17;53.22
46211;BME280;52144;48.040;-1.594;2023-05-03T09:52:00;101426.56;;;20.52;52.72
46211;BME280;52144;48.040;-1.594;2023-05-03T09:54:28;101428.00;;;20.20;53.18
46211;BME280;52144;48.040;-1.594;2023-05-03T09:56:57;101435.13;;;19.73;52.91
46211;BME280;52144;48.040;-1.594;2023-05-03T09:59:26;101428.38;;;20.16;53.66
46211;BME280;52144;48.040;-1.594;2023-05-03T10:01:56;101430.09;;;20.17;52.58
46211;BME280;52144;48.040;-1.594;2023-05-03T10:04:26;101428.09;;;20.08;52.67
46211;BME280;52144;48.040;-1.594;2023-05-03T10:06:57;101432.38;;;20.34;53.45
46211;BME280;52144;48.040;-1.594;2023-05-03T10:09:30;101428.44;;;21.09;53.32
46211;BME280;52144;48.040;-1.594;2023-05-03T10:12:04;101429.19;;;21.22;52.20
46211;BME280;52144;48.040;-1.594;2023-05-03T10:14:33;101423.78;;;21.11;50.60
46211;BME280;52144;48.040;-1.594;2023-05-03T10:17:04;101425.56;;;20.77;51.04
46211;BME280;52144;48.040;-1.594;2023-05-03T10:19:37;101420.06;;;21.12;50.06
46211;BME280;52144;48.040;-1.594;2023-05-03T10:22:08;101407.66;;;20.63;50.96
46211;BME280;52144;48.040;-1.594;2023-05-03T10:25:06;101405.44;;;21.15;51.45
46211;BME280;52144;48.040;-1.594;2023-05-03T10:27:43;101420.34;;;21.54;51.23
46211;BME280;52144;48.040;-1.594;2023-05-03T10:30:27;101416.31;;;20.68;50.79
46211;BME280;52144;48.040;-1.594;2023-05-03T10:32:56;101412.44;;;21.17;50.45
46211;BME280;52144;48.040;-1.594;2023-05-03T10:35:28;101407.97;;;20.94;49.52
46211;BME280;52144;48.040;-1.594;2023-05-03T10:37:57;101410.94;;;21.24;50.06
46211;BME280;52144;48.040;-1.594;2023-05-03T10:40:40;101401.84;;;21.26;49.72
46211;BME280;52144;48.040;-1.594;2023-05-03T10:43:40;101397.41;;;20.91;49.53
46211;BME280;52144;48.040;-1.594;2023-05-03T10:46:30;101388.03;;;21.40;49.90
46211;BME280;52144;48.040;-1.594;2023-05-03T10:49:19;101394.72;;;21.47;50.32
46211;BME280;52144;48.040;-1.594;2023-05-03T10:51:47;101391.97;;;21.24;49.95
46211;BME280;52144;48.040;-1.594;2023-05-03T10:54:17;101390.88;;;21.38;49.24
46211;BME280;52144;48.040;-1.594;2023-05-03T10:56:53;101381.66;;;21.30;48.50
46211;BME280;52144;48.040;-1.594;2023-05-03T10:59:24;101380.53;;;21.32;49.37
46211;BME280;52144;48.040;-1.594;2023-05-03T11:01:53;101370.03;;;21.39;49.76
46211;BME280;52144;48.040;-1.594;2023-05-03T11:04:37;101372.00;;;21.82;49.06
46211;BME280;52144;48.040;-1.594;2023-05-03T11:07:07;101362.56;;;21.97;47.19
46211;BME280;52144;48.040;-1.594;2023-05-03T11:09:37;101354.19;;;22.21;49.77
46211;BME280;52144;48.040;-1.594;2023-05-03T11:12:06;101354.94;;;21.91;50.09
46211;BME280;52144;48.040;-1.594;2023-05-03T11:14:34;101353.03;;;22.03;50.38
46211;BME280;52144;48.040;-1.594;2023-05-03T11:17:02;101353.22;;;21.13;50.43
46211;BME280;52144;48.040;-1.594;2023-05-03T11:19:29;101357.69;;;21.80;50.22
46211;BME280;52144;48.040;-1.594;2023-05-03T11:21:57;101351.41;;;22.12;49.67
46211;BME280;52144;48.040;-1.594;2023-05-03T11:24:26;101356.31;;;21.86;50.00
46211;BME280;52144;48.040;-1.594;2023-05-03T11:26:55;101351.78;;;21.75;49.28
46211;BME280;52144;48.040;-1.594;2023-05-03T11:29:23;101348.09;;;22.61;49.69
46211;BME280;52144;48.040;-1.594;2023-05-03T11:31:51;101351.22;;;22.88;48.10
46211;BME280;52144;48.040;-1.594;2023-05-03T11:34:19;101337.22;;;22.40;49.33
46211;BME280;52144;48.040;-1.594;2023-05-03T11:36:47;101333.59;;;23.03;49.78
46211;BME280;52144;48.040;-1.594;2023-05-03T11:39:16;101332.06;;;23.10;48.24
46211;BME280;52144;48.040;-1.594;2023-05-03T11:42:01;101343.47;;;22.20;47.76
46211;BME280;52144;48.040;-1.594;2023-05-03T11:44:29;101336.56;;;22.27;47.83
46211;BME280;52144;48.040;-1.594;2023-05-03T11:46:57;101322.38;;;22.23;48.02
46211;BME280;52144;48.040;-1.594;2023-05-03T11:51:54;101320.53;;;23.28;48.14
46211;BME280;52144;48.040;-1.594;2023-05-03T11:54:22;101309.19;;;23.13;47.89
46211;BME280;52144;48.040;-1.594;2023-05-03T11:56:54;101310.44;;;23.49;47.66
46211;BME280;52144;48.040;-1.594;2023-05-03T11:59:37;101297.88;;;23.17;46.94
46211;BME280;52144;48.040;-1.594;2023-05-03T12:02:06;101299.47;;;23.10;47.70
46211;BME280;52144;48.040;-1.594;2023-05-03T12:04:35;101296.03;;;22.56;47.55
46211;BME280;52144;48.040;-1.594;2023-05-03T12:07:07;101298.13;;;22.53;46.87
46211;BME280;52144;48.040;-1.594;2023-05-03T12:09:36;101279.97;;;22.74;47.75
46211;BME280;52144;48.040;-1.594;2023-05-03T12:12:06;101284.38;;;22.75;47.59
46211;BME280;52144;48.040;-1.594;2023-05-03T12:14:59;101276.16;;;22.87;49.07
46211;BME280;52144;48.040;-1.594;2023-05-03T12:17:34;101278.31;;;23.23;48.03
46211;BME280;52144;48.040;-1.594;2023-05-03T12:20:15;101278.63;;;22.99;48.49
46211;BME280;52144;48.040;-1.594;2023-05-03T12:22:47;101268.91;;;22.66;47.32
46211;BME280;52144;48.040;-1.594;2023-05-03T12:25:17;101260.22;;;22.41;47.99
46211;BME280;52144;48.040;-1.594;2023-05-03T12:27:46;101253.28;;;22.89;48.64
46211;BME280;52144;48.040;-1.594;2023-05-03T12:30:36;101249.56;;;22.90;47.71
46211;BME280;52144;48.040;-1.594;2023-05-03T12:33:06;101242.25;;;23.21;47.43
46211;BME280;52144;48.040;-1.594;2023-05-03T12:35:36;101241.03;;;22.64;47.88
46211;BME280;52144;48.040;-1.594;2023-05-03T12:38:06;101235.22;;;22.78;47.58
46211;BME280;52144;48.040;-1.594;2023-05-03T12:40:36;101228.41;;;22.94;45.82
46211;BME280;52144;48.040;-1.594;2023-05-03T12:43:05;101226.63;;;22.73;45.53
46211;BME280;52144;48.040;-1.594;2023-05-03T12:45:33;101221.66;;;22.78;45.03
46211;BME280;52144;48.040;-1.594;2023-05-03T12:48:07;101221.66;;;23.38;44.64
46211;BME280;52144;48.040;-1.594;2023-05-03T12:50:35;101220.41;;;23.72;44.44
46211;BME280;52144;48.040;-1.594;2023-05-03T12:53:05;101203.09;;;23.53;43.89
46211;BME280;52144;48.040;-1.594;2023-05-03T12:55:37;101210.38;;;23.72;44.11
46211;BME280;52144;48.040;-1.594;2023-05-03T12:58:09;101212.22;;;23.62;43.53